Huvudsida
METAR-TAF:

METAR-TAF

Flygplatser :

Militär flygplats

Khamis Mushait, Saudiarabien

latitud: 18-18N, longitud: 042-48E, höjd: 2066 m

Aktuellt väderrapport

Denna rapport gjordes för 28 minuter sedan, klockan 08:00 UTC
Vind 22 kt från sydväst
Temperatur 21°C
Fuktighet 43%
Tryck 1026 hPa
Sikt 10 km eller mer
Inga moln under 1 500 m eller inga cumulonimbus

METAR: OEKM 220800Z 22022KT CAVOK 21/08 Q1026 NOSIG

Tid: 11:28 (08:28 UTC)

Väderprognos

Denna rapport gjordes för 3 timmar och 28 minuter sedan, klockan 05:00 UTC
Prognos gäller från 22 kl. 06 UTC till 22 kl. 15 UTC
Vind 10 kt från syd/sydväst i byarna ända upp till 20 kt
Sikt: 8000 m
Få moln på en höjd av 2000 ft

TAF: OEKM 220500Z 2206/2215 20010G20KT 8000 FEW020

Aktuella väderrapporter och prognoser från 4000 flygplatser (METAR- och TAF-rapporter).

De tillgängliga stationerna syns som gula och röda prickar på kartan.

För musen över prickarna för att se namnen på stationerna.

Klicka sedan för att få väderrapporter och prognoser.

För att ändra kartan: Klicka på de gröna knapparna med ett svart kors på för att zooma in; den gröna knappen med ett streck på för att zooma ut; eller på de gröna pilarna för angränsande kartor.


METAR-TAF: